Time;durP1;ratioP1;P1;durP2;ratioP2;P2;SDS_P1;SDS_P2;PMS_P1;PMS_P2;Temp;Humidity;BMP_temperature;BMP_pressure;BME280_temperature;BME280_humidity;BME280_pressure;Samples;Min_cycle;Max_cycle;Signal;HPM_P1;HPM_P2
2022/06/17 00:01:21;;;;;;;25.55;15.70;;;;;;;25.25;45.60;102491.69;5075705;28;20048;-46
2022/06/17 00:03:54;;;;;;;24.85;15.45;;;;;;;25.24;45.78;102493.53;5073208;28;20044;-49
2022/06/17 00:06:23;;;;;;;24.57;15.07;;;;;;;25.25;46.03;102488.97;5075011;28;20167;-49
2022/06/17 00:08:52;;;;;;;24.90;15.40;;;;;;;25.24;45.63;102484.53;5074926;28;20048;-46
2022/06/17 00:11:21;;;;;;;22.50;14.60;;;;;;;25.23;45.57;102485.56;5076732;28;20407;-49
2022/06/17 00:13:48;;;;;;;23.50;14.70;;;;;;;25.23;46.00;102475.53;5073967;28;20308;-50
2022/06/17 00:16:17;;;;;;;23.55;15.18;;;;;;;25.23;45.63;102474.69;5076150;28;20040;-49
2022/06/17 00:18:44;;;;;;;22.08;13.93;;;;;;;25.22;45.62;102481.16;5081562;28;20128;-50
2022/06/17 00:21:19;;;;;;;23.65;14.68;;;;;;;25.22;45.73;102475.72;5078818;28;20278;-50
2022/06/17 00:23:46;;;;;;;25.73;14.90;;;;;;;25.22;46.04;102486.56;5075854;28;20416;-48
2022/06/17 00:26:13;;;;;;;26.75;14.98;;;;;;;25.21;46.08;102483.00;5079278;28;20048;-49
2022/06/17 00:28:39;;;;;;;23.85;14.88;;;;;;;25.20;45.93;102480.44;5076788;28;20159;-46
2022/06/17 00:31:06;;;;;;;23.70;15.15;;;;;;;25.19;46.31;102479.59;5076870;28;20326;-46
2022/06/17 00:33:33;;;;;;;22.50;13.50;;;;;;;25.19;46.25;102482.31;5076430;28;20045;-47
2022/06/17 00:36:00;;;;;;;23.33;14.13;;;;;;;25.18;46.46;102471.63;5077676;28;20366;-48
2022/06/17 00:38:33;;;;;;;24.00;15.15;;;;;;;25.17;46.43;102469.94;5077268;28;20131;-50
2022/06/17 00:41:12;;;;;;;25.42;14.48;;;;;;;25.17;46.82;102480.78;5078925;28;20363;-48
2022/06/17 00:43:40;;;;;;;20.92;14.45;;;;;;;25.17;46.54;102480.78;5077780;28;20056;-45
2022/06/17 00:46:28;;;;;;;21.92;14.27;;;;;;;25.15;46.91;102477.38;5080932;28;20089;-49
2022/06/17 00:49:00;;;;;;;20.63;12.60;;;;;;;25.15;46.54;102480.94;5074621;28;20052;-47
2022/06/17 00:51:33;;;;;;;25.05;14.32;;;;;;;25.15;47.02;102472.78;5074511;28;20066;-46
2022/06/17 00:54:13;;;;;;;21.77;13.63;;;;;;;25.13;46.85;102469.41;5074667;28;20047;-48
2022/06/17 00:56:40;;;;;;;21.52;13.43;;;;;;;25.13;46.61;102472.13;5078372;28;20435;-48
2022/06/17 00:59:10;;;;;;;21.30;13.85;;;;;;;25.11;47.21;102463.28;5074870;28;20341;-47
2022/06/17 01:01:43;;;;;;;22.48;14.15;;;;;;;25.09;47.24;102477.00;5074344;28;20052;-46
2022/06/17 01:04:11;;;;;;;26.05;14.25;;;;;;;25.10;47.24;102476.00;5076408;28;20043;-49
2022/06/17 01:06:41;;;;;;;19.77;13.02;;;;;;;25.09;46.83;102479.72;5073659;28;20143;-49
2022/06/17 01:12:03;;;;;;;20.27;12.90;;;;;;;25.08;47.14;102472.53;5074055;28;20055;-47
2022/06/17 01:14:29;;;;;;;19.67;12.63;;;;;;;25.07;46.87;102470.84;5075439;28;20074;-47
2022/06/17 01:16:57;;;;;;;23.92;13.18;;;;;;;25.07;47.02;102480.84;5078002;28;20048;-48
2022/06/17 01:19:32;;;;;;;21.67;13.85;;;;;;;25.06;47.22;102479.16;5074708;28;21320;-50
2022/06/17 01:22:11;;;;;;;20.98;12.45;;;;;;;25.05;47.40;102475.59;5072963;28;20048;-49
2022/06/17 01:24:38;;;;;;;23.58;13.88;;;;;;;25.05;47.15;102477.47;5079032;28;20170;-47
2022/06/17 01:27:05;;;;;;;22.52;13.00;;;;;;;25.04;47.04;102467.59;5077783;28;20316;-49
2022/06/17 01:29:33;;;;;;;21.85;13.05;;;;;;;25.03;46.74;102474.91;5075839;28;20040;-49
2022/06/17 01:32:00;;;;;;;19.00;12.90;;;;;;;25.02;46.95;102478.63;5074064;28;20051;-50
2022/06/17 01:34:26;;;;;;;20.90;12.32;;;;;;;25.02;47.13;102481.34;5073569;28;20042;-47
2022/06/17 01:36:54;;;;;;;18.08;11.52;;;;;;;25.02;46.97;102473.19;5074999;28;20055;-47
2022/06/17 01:39:21;;;;;;;19.75;12.77;;;;;;;25.01;46.84;102476.94;5074599;28;20055;-50
2022/06/17 01:41:48;;;;;;;20.48;12.55;;;;;;;25.01;47.02;102466.09;5073202;28;20347;-48
2022/06/17 01:44:25;;;;;;;24.00;12.48;;;;;;;25.00;47.36;102469.78;5071472;28;20460;-49
2022/06/17 01:46:55;;;;;;;19.65;12.63;;;;;;;25.00;47.20;102472.50;5076038;28;20044;-46
2022/06/17 01:49:27;;;;;;;18.38;12.30;;;;;;;25.00;46.89;102471.66;5078012;28;20245;-49
2022/06/17 01:52:04;;;;;;;18.15;11.98;;;;;;;24.98;47.07;102477.25;5075907;28;20047;-50
2022/06/17 01:54:36;;;;;;;20.65;12.07;;;;;;;24.99;46.85;102469.97;5076351;28;20475;-49
2022/06/17 01:57:05;;;;;;;19.30;12.85;;;;;;;24.98;47.38;102463.69;5074697;28;20342;-48
2022/06/17 01:59:43;;;;;;;18.45;11.73;;;;;;;24.98;47.44;102465.56;5075539;28;20051;-47
2022/06/17 02:02:13;;;;;;;18.95;11.40;;;;;;;24.96;47.14;102452.13;5074930;28;20048;-47
2022/06/17 02:04:46;;;;;;;16.75;11.80;;;;;;;24.96;47.20;102451.28;5075175;28;20064;-49
2022/06/17 02:07:19;;;;;;;17.42;11.45;;;;;;;24.98;47.11;102457.41;5072564;28;20041;-50
2022/06/17 02:09:47;;;;;;;18.80;12.43;;;;;;;24.96;47.57;102454.84;5073391;28;20516;-47
2022/06/17 02:12:16;;;;;;;20.98;11.80;;;;;;;24.96;47.52;102451.28;5075351;28;20043;-48
2022/06/17 02:14:45;;;;;;;21.13;11.43;;;;;;;24.94;47.27;102448.75;5076253;28;20358;-46
2022/06/17 02:17:12;;;;;;;21.85;11.65;;;;;;;24.93;47.33;102449.75;5079810;28;20117;-47
2022/06/17 02:19:42;;;;;;;16.38;10.88;;;;;;;24.93;47.66;102452.47;5072352;28;20043;-47
2022/06/17 02:22:19;;;;;;;17.67;11.25;;;;;;;24.92;47.34;102461.59;5071489;28;20048;-49
2022/06/17 02:24:55;;;;;;;15.98;11.02;;;;;;;24.92;47.67;102458.03;5076397;28;20578;-47
2022/06/17 02:27:22;;;;;;;19.20;11.30;;;;;;;24.91;47.18;102459.91;5077083;28;20149;-46
2022/06/17 02:29:49;;;;;;;16.40;11.05;;;;;;;24.90;47.85;102466.34;5074165;28;20045;-49
2022/06/17 02:32:17;;;;;;;14.55;9.80;;;;;;;24.90;47.95;102469.06;5071955;28;20351;-48
2022/06/17 02:35:00;;;;;;;18.15;10.90;;;;;;;24.89;47.65;102461.09;5070314;28;20508;-49
2022/06/17 02:37:28;;;;;;;15.45;10.30;;;;;;;24.89;47.75;102464.66;5074363;28;20056;-45
2022/06/17 02:39:59;;;;;;;15.80;10.15;;;;;;;24.87;47.46;102462.09;5070585;28;20063;-48
2022/06/17 02:42:31;;;;;;;16.98;10.32;;;;;;;24.88;47.40;102457.50;5073204;28;20052;-48
2022/06/17 02:45:03;;;;;;;15.57;9.60;;;;;;;24.85;48.12;102458.69;5074080;28;20099;-47
2022/06/17 02:47:31;;;;;;;16.55;10.70;;;;;;;24.85;47.67;102452.41;5073765;28;20044;-49
2022/06/17 02:49:59;;;;;;;14.65;9.60;;;;;;;24.85;47.80;102465.97;5068518;28;20055;-45
2022/06/17 02:52:34;;;;;;;14.52;8.77;;;;;;;24.83;47.80;102468.00;5078748;28;20062;-45
2022/06/17 02:55:23;;;;;;;14.77;9.45;;;;;;;24.83;48.10;102468.00;5077047;28;20040;-49
2022/06/17 02:57:52;;;;;;;14.10;9.50;;;;;;;24.83;48.10;102465.28;5064438;28;20045;-46
2022/06/17 03:00:21;;;;;;;14.05;9.23;;;;;;;24.82;48.17;102463.59;5069525;28;20044;-46
2022/06/17 03:02:51;;;;;;;15.00;8.30;;;;;;;24.82;47.89;102466.28;5072969;28;20049;-49
2022/06/17 03:05:25;;;;;;;14.02;8.20;;;;;;;24.82;48.07;102459.00;5076840;28;20060;-46
2022/06/17 03:07:54;;;;;;;15.43;8.55;;;;;;;24.82;47.78;102463.59;5070418;28;20048;-45
2022/06/17 03:10:33;;;;;;;15.90;8.13;;;;;;;24.78;48.03;102464.91;5066023;28;20044;-45
2022/06/17 03:13:11;;;;;;;15.15;8.23;;;;;;;24.79;47.69;102467.47;5079846;28;20058;-46
2022/06/17 03:15:40;;;;;;;14.93;8.18;;;;;;;24.80;47.39;102468.31;5079166;28;20048;-45
2022/06/17 03:18:07;;;;;;;14.02;7.88;;;;;;;24.79;47.70;102467.47;5078263;28;20040;-46
2022/06/17 03:20:35;;;;;;;10.18;6.63;;;;;;;24.79;47.13;102469.31;5077640;28;20053;-45
2022/06/17 03:23:07;;;;;;;11.38;7.15;;;;;;;24.76;47.16;102465.06;5075830;28;20052;-45
2022/06/17 03:25:44;;;;;;;10.93;6.75;;;;;;;24.76;46.89;102469.63;5079611;28;20043;-49
2022/06/17 03:28:16;;;;;;;11.07;6.13;;;;;;;24.75;47.19;102467.94;5082660;28;20163;-46
2022/06/17 03:30:47;;;;;;;9.23;6.10;;;;;;;24.76;47.50;102466.91;5078248;28;20063;-48
2022/06/17 03:33:16;;;;;;;8.30;5.93;;;;;;;24.75;47.04;102468.78;5075357;28;20439;-47
2022/06/17 03:35:46;;;;;;;10.02;5.38;;;;;;;24.75;47.37;102473.34;5078479;28;20059;-45
2022/06/17 03:38:31;;;;;;;8.07;5.40;;;;;;;24.74;46.87;102475.22;5078117;28;20441;-47
2022/06/17 03:41:09;;;;;;;10.40;5.40;;;;;;;24.75;47.41;102467.94;5078863;28;20043;-49
2022/06/17 03:43:53;;;;;;;10.68;5.15;;;;;;;24.73;46.78;102457.25;5080691;28;20131;-47
2022/06/17 03:46:24;;;;;;;10.15;5.25;;;;;;;24.73;46.48;102457.25;5084736;28;20062;-49
2022/06/17 03:49:02;;;;;;;9.48;4.93;;;;;;;24.73;46.28;102470.81;5081766;28;20060;-45
2022/06/17 03:51:29;;;;;;;7.32;4.10;;;;;;;24.72;46.63;102465.53;5083632;28;20044;-46
2022/06/17 03:53:55;;;;;;;14.50;4.97;;;;;;;24.71;46.37;102453.84;5083130;28;20082;-49
2022/06/17 03:56:27;;;;;;;8.05;4.28;;;;;;;24.71;46.81;102459.25;5082529;28;20052;-48
2022/06/17 03:58:56;;;;;;;7.20;4.00;;;;;;;24.71;46.55;102463.84;5082663;28;20063;-46
2022/06/17 04:01:43;;;;;;;8.73;3.70;;;;;;;24.68;46.56;102465.00;5075459;28;20070;-46
2022/06/17 04:04:15;;;;;;;8.75;4.07;;;;;;;24.70;46.37;102457.56;5073387;28;20051;-46
2022/06/17 04:06:45;;;;;;;9.35;3.90;;;;;;;24.69;47.53;102452.31;5076531;28;20083;-46
2022/06/17 04:09:21;;;;;;;9.30;3.90;;;;;;;24.69;47.49;102455.88;5078678;28;20044;-48
2022/06/17 04:11:51;;;;;;;11.23;3.95;;;;;;;24.69;47.48;102458.59;5081102;28;20052;-46
2022/06/17 04:14:20;;;;;;;9.55;4.45;;;;;;;24.68;47.47;102456.00;5076087;28;20127;-46
2022/06/17 04:16:50;;;;;;;5.97;3.65;;;;;;;24.67;47.26;102459.75;5072913;28;20051;-48
2022/06/17 04:19:23;;;;;;;14.43;6.25;;;;;;;24.67;46.83;102471.44;5077273;28;20067;-47
2022/06/17 04:21:52;;;;;;;14.32;6.60;;;;;;;24.67;46.62;102462.47;5068266;28;20040;-47
2022/06/17 04:24:22;;;;;;;16.75;6.95;;;;;;;24.66;46.70;102455.34;5073525;28;20683;-47
2022/06/17 04:26:53;;;;;;;12.82;5.97;;;;;;;24.65;46.50;102461.78;5076961;28;20454;-46
2022/06/17 04:29:42;;;;;;;13.48;5.72;;;;;;;24.62;46.29;102457.50;5075357;28;20301;-48
2022/06/17 04:32:31;;;;;;;15.73;6.57;;;;;;;24.61;46.18;102455.81;5076048;28;20339;-47
2022/06/17 04:34:58;;;;;;;16.17;6.88;;;;;;;24.62;46.06;102449.38;5068267;28;20345;-46
2022/06/17 04:37:26;;;;;;;12.52;6.13;;;;;;;24.61;45.85;102456.66;5070993;28;20501;-47
2022/06/17 04:39:56;;;;;;;22.42;6.63;;;;;;;24.61;47.10;102461.25;5073639;28;20076;-49
2022/06/17 04:42:30;;;;;;;18.95;6.72;;;;;;;24.62;47.98;102457.50;5071447;28;20047;-47
2022/06/17 04:44:57;;;;;;;28.15;7.00;;;;;;;24.62;48.50;102452.94;5077052;28;20036;-48
2022/06/17 04:47:23;;;;;;;25.30;6.53;;;;;;;24.63;49.68;102453.78;5075882;28;20056;-46
2022/06/17 04:49:52;;;;;;;12.13;6.13;;;;;;;24.63;49.52;102448.38;5072474;28;20054;-46
2022/06/17 04:52:30;;;;;;;14.45;6.03;;;;;;;24.62;49.03;102449.38;5070468;28;20155;-49
2022/06/17 04:54:59;;;;;;;14.65;5.72;;;;;;;24.61;49.50;102448.53;5077822;28;20047;-44
2022/06/17 04:57:27;;;;;;;16.13;5.35;;;;;;;24.62;49.34;102433.97;5074705;28;20079;-46
2022/06/17 04:59:58;;;;;;;14.30;5.10;;;;;;;24.62;49.38;102424.97;5077601;28;20048;-45
2022/06/17 05:02:28;;;;;;;14.77;5.07;;;;;;;24.63;48.54;102429.38;5074155;28;20055;-48
2022/06/17 05:05:01;;;;;;;12.95;5.35;;;;;;;24.62;48.26;102428.53;5076076;28;20048;-47
2022/06/17 05:07:36;;;;;;;13.73;5.45;;;;;;;24.63;48.16;102429.38;5079651;28;20055;-47
2022/06/17 05:10:32;;;;;;;12.27;5.60;;;;;;;24.63;47.47;102423.97;5069817;28;20056;-48
2022/06/17 05:13:12;;;;;;;14.30;5.63;;;;;;;24.62;47.21;102433.97;5074021;28;20044;-46
2022/06/17 05:15:39;;;;;;;17.73;5.70;;;;;;;24.63;47.84;102430.22;5068408;28;20047;-44
2022/06/17 05:18:06;;;;;;;11.27;5.05;;;;;;;24.63;47.46;102427.50;4983931;28;20065;-41
2022/06/17 05:20:33;;;;;;;13.07;6.07;;;;;;;24.66;47.43;102431.78;4984250;28;20061;-43
2022/06/17 05:23:05;;;;;;;12.32;5.35;;;;;;;24.67;47.30;102427.19;4991776;28;20053;-39
2022/06/17 05:25:41;;;;;;;10.93;5.65;;;;;;;24.69;46.96;102436.91;4987159;28;20140;-41
2022/06/17 05:28:12;;;;;;;11.27;5.63;;;;;;;24.71;47.21;102434.84;4985613;28;20154;-45
2022/06/17 05:30:44;;;;;;;14.10;5.55;;;;;;;24.73;47.32;102446.41;4990426;28;20293;-42
2022/06/17 05:33:13;;;;;;;14.07;6.72;;;;;;;24.75;47.03;102438.09;4985798;28;20111;-43
2022/06/17 05:35:41;;;;;;;9.98;5.65;;;;;;;24.77;46.97;102436.09;4986388;28;20057;-44
2022/06/17 05:38:08;;;;;;;11.45;5.97;;;;;;;24.78;46.59;102435.94;4965920;28;20285;-42
2022/06/17 05:40:36;;;;;;;11.90;5.45;;;;;;;24.79;46.62;102431.34;5003385;28;20070;-41
2022/06/17 05:43:02;;;;;;;11.20;5.65;;;;;;;24.79;46.16;102434.06;4994110;28;20131;-42
2022/06/17 05:45:30;;;;;;;12.00;5.63;;;;;;;24.81;46.36;102418.50;4990668;28;20053;-42
2022/06/17 05:47:57;;;;;;;11.30;5.13;;;;;;;24.82;45.80;102414.75;4991885;28;20057;-41
2022/06/17 05:50:26;;;;;;;9.40;5.32;;;;;;;24.85;45.87;102417.16;4995260;28;20568;-41
2022/06/17 05:52:57;;;;;;;9.43;4.93;;;;;;;24.86;45.86;102418.84;4994791;28;20148;-42
2022/06/17 05:55:25;;;;;;;12.32;5.07;;;;;;;24.86;46.17;102408.84;4995792;28;20053;-41
2022/06/17 05:57:51;;;;;;;10.85;5.38;;;;;;;24.89;45.70;102413.13;4968662;28;20067;-42
2022/06/17 06:00:19;;;;;;;14.70;4.88;;;;;;;24.90;45.64;102406.66;5000245;28;20049;-41
2022/06/17 06:02:45;;;;;;;10.57;5.25;;;;;;;24.90;45.85;102403.97;4995677;28;20077;-42
2022/06/17 06:05:16;;;;;;;8.18;4.88;;;;;;;24.92;45.53;102412.78;4989270;28;20045;-41
2022/06/17 06:07:42;;;;;;;11.57;4.80;;;;;;;24.93;45.56;102406.34;4995102;28;20449;-42
2022/06/17 06:10:10;;;;;;;10.27;4.82;;;;;;;24.95;45.75;102403.47;4990260;28;20439;-41
2022/06/17 06:15:25;;;;;;;11.52;4.03;;;;;;;24.97;45.79;102396.03;4992393;28;20049;-40
2022/06/17 06:17:52;;;;;;;8.35;3.83;;;;;;;24.97;45.36;102388.75;4986688;28;20471;-42
2022/06/17 06:20:19;;;;;;;11.45;4.65;;;;;;;24.99;44.98;102389.41;4974973;28;20638;-41
2022/06/17 06:22:45;;;;;;;10.48;4.60;;;;;;;25.00;45.50;102398.41;5022951;28;20800;-41
2022/06/17 06:25:14;;;;;;;10.25;4.05;;;;;;;25.01;44.95;102390.13;5010204;28;20056;-42
2022/06/17 06:27:41;;;;;;;8.23;4.35;;;;;;;25.02;45.42;102383.66;5013237;28;20436;-41
2022/06/17 06:30:24;;;;;;;8.10;4.40;;;;;;;25.04;45.20;102380.78;5010946;28;20402;-42
2022/06/17 06:32:54;;;;;;;7.00;4.00;;;;;;;25.06;44.88;102384.19;5018463;28;20056;-41
2022/06/17 06:35:24;;;;;;;8.75;3.88;;;;;;;25.07;44.86;102381.31;5016479;28;20049;-42
2022/06/17 06:37:50;;;;;;;10.40;4.10;;;;;;;25.07;45.46;102378.59;4989511;28;20355;-42
2022/06/17 06:40:18;;;;;;;7.78;3.88;;;;;;;25.09;44.93;102378.50;5032453;28;20063;-41
2022/06/17 06:42:47;;;;;;;8.05;3.70;;;;;;;25.10;45.06;102393.75;5019332;28;20060;-42
2022/06/17 06:45:22;;;;;;;8.98;3.92;;;;;;;25.11;45.22;102396.28;5021179;28;20425;-40
2022/06/17 06:47:53;;;;;;;7.03;3.78;;;;;;;25.11;45.21;102392.72;5024685;28;20411;-41
2022/06/17 06:50:23;;;;;;;8.00;3.60;;;;;;;25.13;45.33;102401.56;5027025;28;20120;-42
2022/06/17 06:52:49;;;;;;;9.00;3.70;;;;;;;25.15;44.91;102395.97;5024386;28;20088;-41
2022/06/17 06:55:16;;;;;;;5.32;3.30;;;;;;;25.17;45.19;102391.25;5023575;28;20049;-41
2022/06/17 06:57:54;;;;;;;9.02;4.00;;;;;;;25.18;44.41;102391.06;4996334;28;20599;-41
2022/06/17 07:00:27;;;;;;;7.95;3.25;;;;;;;25.22;44.77;102402.44;5026940;28;20475;-41
2022/06/17 07:02:54;;;;;;;;;;;;;;;25.21;44.53;102408.91;5026424;28;20084;-43
2022/06/17 07:05:21;;;;;;;5.75;2.92;;;;;;;25.27;44.63;102421.78;5025610;28;19936;-41
2022/06/17 07:07:47;;;;;;;4.30;3.00;;;;;;;25.25;44.73;102421.97;5025324;28;20091;-42
2022/06/17 07:10:20;;;;;;;6.00;3.20;;;;;;;25.26;44.29;102426.38;5027345;28;20643;-40
2022/06/17 07:12:47;;;;;;;9.77;3.53;;;;;;;25.27;44.27;102409.06;5021578;28;21135;-41
2022/06/17 07:15:14;;;;;;;6.90;3.45;;;;;;;25.28;44.43;102401.78;5019737;28;20451;-41
2022/06/17 07:17:54;;;;;;;9.23;3.65;;;;;;;25.27;44.38;102386.50;4982195;28;20069;-42
2022/06/17 07:20:23;;;;;;;5.82;3.10;;;;;;;25.29;44.49;102393.50;5021374;28;20045;-41
2022/06/17 07:22:51;;;;;;;4.13;2.40;;;;;;;25.29;44.25;102396.19;5022665;28;20049;-41
2022/06/17 07:25:21;;;;;;;6.18;3.20;;;;;;;25.30;44.30;102410.63;5022004;28;20315;-41
2022/06/17 07:27:48;;;;;;;7.10;3.25;;;;;;;25.31;44.24;102415.03;5018804;28;20053;-41
2022/06/17 07:30:19;;;;;;;4.15;2.65;;;;;;;25.31;44.19;102415.03;5020843;28;20332;-41
2022/06/17 07:32:46;;;;;;;5.20;2.97;;;;;;;25.32;44.26;102416.72;5025070;28;20056;-43
2022/06/17 07:35:15;;;;;;;9.02;2.83;;;;;;;25.32;44.57;102430.28;5023030;28;20065;-43
2022/06/17 07:40:28;;;;;;;6.70;2.92;;;;;;;25.37;44.51;102422.53;5024300;28;20041;-43
2022/06/17 07:42:56;;;;;;;5.03;2.80;;;;;;;25.39;44.66;102414.22;5021532;28;20057;-46
2022/06/17 07:45:24;;;;;;;12.18;3.20;;;;;;;25.39;44.16;102408.78;5019884;28;20392;-47
2022/06/17 07:47:52;;;;;;;9.02;2.80;;;;;;;25.39;44.39;102415.06;5021917;28;20548;-45
2022/06/17 07:50:25;;;;;;;4.85;2.72;;;;;;;25.39;44.40;102416.91;5020464;28;20052;-43
2022/06/17 07:52:52;;;;;;;6.88;3.28;;;;;;;25.38;44.17;102413.34;5020361;28;20514;-44
2022/06/17 07:55:19;;;;;;;5.65;2.97;;;;;;;25.38;44.24;102416.06;5022249;28;20120;-48
2022/06/17 07:57:46;;;;;;;6.75;3.13;;;;;;;25.38;44.14;102417.94;5023920;28;20582;-47
2022/06/17 08:00:18;;;;;;;3.70;2.40;;;;;;;25.36;44.31;102420.81;5023816;28;20302;-45
2022/06/17 08:02:44;;;;;;;3.63;2.58;;;;;;;25.38;44.13;102420.66;5024240;28;20045;-43
2022/06/17 08:05:11;;;;;;;6.88;2.88;;;;;;;25.37;44.47;102419.81;5026674;28;20091;-44
2022/06/17 08:07:37;;;;;;;4.45;2.85;;;;;;;25.36;44.28;102423.53;5025566;28;20478;-47
2022/06/17 08:10:05;;;;;;;5.55;3.15;;;;;;;25.36;44.15;102420.81;5019417;28;20052;-43
2022/06/17 08:12:31;;;;;;;4.57;2.88;;;;;;;25.36;44.15;102427.06;5019785;28;20103;-43
2022/06/17 08:14:58;;;;;;;5.10;2.47;;;;;;;25.36;44.22;102423.53;5020832;28;20046;-44
2022/06/17 08:17:25;;;;;;;4.10;2.45;;;;;;;25.35;44.06;102429.97;5023095;28;20045;-45
2022/06/17 08:19:56;;;;;;;4.97;2.75;;;;;;;25.34;44.06;102431.84;5016387;28;20050;-44
2022/06/17 08:22:25;;;;;;;5.20;2.80;;;;;;;25.35;44.15;102438.13;5023940;28;20131;-45
2022/06/17 08:24:53;;;;;;;4.80;2.60;;;;;;;25.33;44.34;102442.88;5020313;28;20049;-43
2022/06/17 08:27:19;;;;;;;5.43;3.15;;;;;;;25.33;44.42;102434.72;5028067;28;20117;-46
2022/06/17 08:29:46;;;;;;;5.85;2.28;;;;;;;25.31;44.64;102425.88;5021926;28;20425;-47
2022/06/17 08:35:01;;;;;;;4.35;2.47;;;;;;;25.32;44.17;102424.84;5019679;28;20081;-43
2022/06/17 08:37:28;;;;;;;7.50;2.47;;;;;;;25.31;43.98;102417.75;5021978;28;20368;-46
2022/06/17 08:39:56;;;;;;;6.40;2.30;;;;;;;25.31;44.04;102429.44;5019049;28;20065;-45
2022/06/17 08:42:38;;;;;;;5.40;2.47;;;;;;;25.31;43.96;102418.59;5022949;28;20067;-46
2022/06/17 08:45:19;;;;;;;5.95;2.33;;;;;;;25.30;44.44;102422.31;5025532;28;20064;-47
2022/06/17 08:48:06;;;;;;;4.32;2.17;;;;;;;25.31;44.15;102418.59;5022708;28;20042;-44
2022/06/17 08:51:06;;;;;;;3.67;2.20;;;;;;;25.31;44.24;102420.47;5023371;28;20436;-44
2022/06/17 08:53:43;;;;;;;3.35;2.10;;;;;;;25.32;44.49;102427.56;5022111;28;20417;-44
2022/06/17 08:56:20;;;;;;;5.60;2.80;;;;;;;25.31;44.28;102423.16;5021949;28;20057;-46
2022/06/17 08:59:16;;;;;;;3.85;1.90;;;;;;;25.30;44.17;102426.91;5020266;28;20128;-44
2022/06/17 09:01:50;;;;;;;4.18;2.20;;;;;;;25.32;44.61;102424.84;5022847;28;20128;-44
2022/06/17 09:04:45;;;;;;;5.18;2.08;;;;;;;25.32;44.49;102422.16;5023872;28;20049;-44
2022/06/17 09:07:41;;;;;;;3.97;1.92;;;;;;;25.32;44.70;102425.72;5025351;28;20122;-47
2022/06/17 09:10:18;;;;;;;4.57;1.65;;;;;;;25.34;44.66;102409.28;5019805;28;20045;-47
2022/06/17 09:12:57;;;;;;;3.22;1.73;;;;;;;25.34;44.50;102418.25;5019057;28;20053;-48
2022/06/17 09:15:53;;;;;;;3.55;2.00;;;;;;;25.34;44.52;102414.72;5013904;28;20048;-44
2022/06/17 09:18:35;;;;;;;3.00;2.10;;;;;;;25.36;44.58;102427.06;5021930;28;20053;-44
2022/06/17 09:21:10;;;;;;;3.60;2.00;;;;;;;25.38;44.53;102429.66;5016990;28;20042;-43
2022/06/17 09:23:39;;;;;;;2.38;1.55;;;;;;;25.39;44.82;102427.78;5021707;28;20045;-46
2022/06/17 09:26:28;;;;;;;3.63;1.90;;;;;;;25.40;44.53;102427.59;5026443;28;20059;-45
2022/06/17 09:29:01;;;;;;;4.30;1.90;;;;;;;25.43;44.62;102424.56;5025082;28;20398;-48
2022/06/17 09:31:41;;;;;;;3.95;1.90;;;;;;;25.45;44.80;102421.69;5012868;28;20042;-43
2022/06/17 09:34:20;;;;;;;2.88;1.65;;;;;;;25.49;44.77;102418.50;5017288;28;20519;-46
2022/06/17 09:36:56;;;;;;;5.35;1.75;;;;;;;25.52;44.69;102412.72;5022705;28;20037;-46
2022/06/17 09:39:33;;;;;;;4.22;1.92;;;;;;;25.55;44.49;102406.09;5023787;28;20051;-47
2022/06/17 09:42:06;;;;;;;2.40;1.60;;;;;;;25.58;44.76;102403.06;5027282;28;20043;-45
2022/06/17 09:44:40;;;;;;;2.58;2.05;;;;;;;25.61;44.66;102402.75;5017117;28;20589;-44
2022/06/17 09:47:18;;;;;;;3.25;1.70;;;;;;;25.64;44.83;102402.38;5021816;28;20041;-45
2022/06/17 09:49:53;;;;;;;2.10;1.35;;;;;;;25.68;44.37;102405.63;5023075;28;20045;-44
2022/06/17 09:52:32;;;;;;;2.38;1.60;;;;;;;25.70;44.68;102406.31;5021578;28;20038;-46
2022/06/17 09:55:11;;;;;;;3.60;1.88;;;;;;;25.73;44.81;102400.53;5019209;28;20056;-47
2022/06/17 09:58:21;;;;;;;6.88;1.65;;;;;;;25.75;44.64;102409.38;5019841;28;20306;-45
2022/06/17 10:00:52;;;;;;;2.97;1.95;;;;;;;25.80;44.58;102404.31;5018235;28;20064;-47
2022/06/17 10:03:29;;;;;;;3.28;1.50;;;;;;;25.82;44.48;102396.88;5018030;28;20378;-47
2022/06/17 10:05:59;;;;;;;2.78;1.63;;;;;;;25.84;44.40;102398.38;5017327;28;20471;-44
2022/06/17 10:08:35;;;;;;;4.53;1.95;;;;;;;25.86;44.42;102392.78;5020265;28;20133;-49
2022/06/17 10:11:20;;;;;;;3.55;1.98;;;;;;;25.88;44.52;102390.75;5020846;28;20314;-45
2022/06/17 10:14:01;;;;;;;5.60;1.92;;;;;;;25.90;44.52;102386.00;5018092;28;20065;-48
2022/06/17 10:19:50;;;;;;;4.43;2.00;;;;;;;25.96;44.41;102377.16;5016665;28;20144;-44
2022/06/17 10:22:41;;;;;;;4.82;1.85;;;;;;;25.98;44.46;102377.00;5018769;28;20528;-46
2022/06/17 10:25:25;;;;;;;3.42;1.98;;;;;;;26.00;44.44;102370.38;5021674;28;20060;-46
2022/06/17 10:28:23;;;;;;;3.95;1.73;;;;;;;26.02;44.69;102354.75;5020363;28;20056;-44
2022/06/17 10:31:14;;;;;;;3.13;1.83;;;;;;;26.05;44.31;102351.72;5017732;28;20413;-44
2022/06/17 10:33:42;;;;;;;3.42;1.90;;;;;;;26.07;44.26;102362.41;5020212;28;20061;-45
2022/06/17 10:36:12;;;;;;;4.25;1.88;;;;;;;26.08;44.12;102366.81;5017697;28;20042;-44
2022/06/17 10:38:43;;;;;;;4.00;2.63;;;;;;;26.11;44.29;102368.34;5015075;28;20128;-44
2022/06/17 10:41:10;;;;;;;5.05;2.08;;;;;;;26.13;44.21;102369.00;5016096;28;20038;-47
2022/06/17 10:43:52;;;;;;;2.28;1.60;;;;;;;26.14;44.22;102359.88;5016720;28;20045;-44
2022/06/17 10:46:24;;;;;;;2.85;1.80;;;;;;;26.16;43.89;102352.38;5018290;28;20048;-44
2022/06/17 10:49:15;;;;;;;2.10;1.50;;;;;;;26.18;43.96;102356.63;5019259;28;20229;-46
2022/06/17 10:51:45;;;;;;;3.65;1.70;;;;;;;26.19;43.92;102361.03;5016195;28;20823;-45
2022/06/17 10:54:29;;;;;;;4.95;1.85;;;;;;;26.20;43.96;102351.84;5018688;28;20064;-48
2022/06/17 10:57:06;;;;;;;3.17;1.73;;;;;;;26.23;43.68;102342.50;5015058;28;20045;-45
2022/06/17 10:59:41;;;;;;;2.83;1.52;;;;;;;26.24;43.97;102338.78;5019168;28;20049;-44
2022/06/17 11:02:30;;;;;;;2.80;1.70;;;;;;;26.26;43.71;102342.19;5024139;28;20050;-46
2022/06/17 11:04:59;;;;;;;6.68;1.95;;;;;;;26.27;43.86;102333.84;5014569;28;20136;-44
2022/06/17 11:07:31;;;;;;;3.40;1.77;;;;;;;26.29;43.76;102333.66;5020012;28;20052;-45
2022/06/17 11:10:15;;;;;;;2.83;1.60;;;;;;;26.30;43.59;102328.06;5018192;28;20052;-45
2022/06/17 11:12:53;;;;;;;3.70;1.80;;;;;;;26.32;43.67;102336.03;5015483;28;20059;-44
2022/06/17 11:15:26;;;;;;;4.93;2.17;;;;;;;26.34;43.70;102325.84;5019402;28;20068;-45
2022/06/17 11:17:57;;;;;;;5.20;1.85;;;;;;;26.36;43.65;102320.22;5015453;28;20406;-46
2022/06/17 11:20:32;;;;;;;3.22;1.70;;;;;;;26.36;43.44;102322.94;5020973;28;20060;-47
2022/06/17 11:23:22;;;;;;;2.58;1.45;;;;;;;26.38;43.51;102315.47;5018457;28;20049;-46
2022/06/17 11:25:54;;;;;;;7.75;2.97;;;;;;;26.39;43.68;102320.75;5014635;28;21236;-47
2022/06/17 11:28:33;;;;;;;2.55;1.80;;;;;;;26.40;43.38;102306.13;5016609;28;20364;-44
2022/06/17 11:31:02;;;;;;;5.43;1.70;;;;;;;26.41;43.31;102299.66;5014873;28;20067;-45
2022/06/17 11:33:36;;;;;;;2.70;1.50;;;;;;;26.43;43.39;102292.19;5022924;28;20080;-48
2022/06/17 11:36:13;;;;;;;2.28;1.77;;;;;;;26.45;43.25;102295.59;5019142;28;20136;-46
2022/06/17 11:38:40;;;;;;;2.83;1.60;;;;;;;26.47;43.29;102284.56;5020414;28;20053;-44
2022/06/17 11:41:30;;;;;;;2.47;1.30;;;;;;;26.46;43.10;102288.31;5017805;28;20104;-45
2022/06/17 11:44:07;;;;;;;1.98;1.45;;;;;;;26.47;42.95;102285.41;5022117;28;20128;-44
2022/06/17 11:46:35;;;;;;;1.90;1.52;;;;;;;26.49;43.32;102274.34;5021651;28;20384;-44
2022/06/17 11:49:13;;;;;;;3.75;1.42;;;;;;;26.48;42.98;102273.50;5018090;28;20430;-44
2022/06/17 11:51:48;;;;;;;3.83;2.03;;;;;;;26.50;43.12;102263.31;5019573;28;20690;-44
2022/06/17 11:54:23;;;;;;;4.82;1.50;;;;;;;26.50;42.75;102273.34;5021624;28;20045;-46
2022/06/17 11:56:52;;;;;;;2.35;1.45;;;;;;;26.52;42.93;102277.56;5024553;28;20142;-48
2022/06/17 11:59:28;;;;;;;2.90;1.35;;;;;;;26.52;42.82;102288.44;5025303;28;20061;-46